createdAt,value
2022-11-30T00:01:24.587Z,370.88
2022-11-30T00:03:55.665Z,365.67
2022-11-30T00:06:23.758Z,356.02
2022-11-30T00:08:56.159Z,357.15
2022-11-30T00:11:25.117Z,383.52
2022-11-30T00:13:51.915Z,362.20
2022-11-30T00:16:19.235Z,383.10
2022-11-30T00:18:45.902Z,401.02
2022-11-30T00:21:14.539Z,357.33
2022-11-30T00:23:43.253Z,361.60
2022-11-30T00:26:13.075Z,372.67
2022-11-30T00:28:40.341Z,353.88
2022-11-30T00:31:12.258Z,386.13
2022-11-30T00:33:39.591Z,368.02
2022-11-30T00:36:12.205Z,372.08
2022-11-30T00:38:39.439Z,342.45
2022-11-30T00:41:06.796Z,372.45
2022-11-30T00:43:33.419Z,326.40
2022-11-30T00:46:00.987Z,365.77
2022-11-30T00:48:27.660Z,381.55
2022-11-30T00:50:54.980Z,439.40
2022-11-30T00:53:21.828Z,369.10
2022-11-30T00:55:49.419Z,387.38
2022-11-30T00:58:16.349Z,398.02
2022-11-30T01:00:44.134Z,381.98
2022-11-30T01:03:11.137Z,422.23
2022-11-30T01:05:39.255Z,409.25
2022-11-30T01:08:08.074Z,475.83
2022-11-30T01:10:36.581Z,376.35
2022-11-30T01:13:03.947Z,386.35
2022-11-30T01:15:32.199Z,458.60
2022-11-30T01:18:01.886Z,412.25
2022-11-30T01:20:29.211Z,427.00
2022-11-30T01:22:56.142Z,456.50
2022-11-30T01:25:23.749Z,441.63
2022-11-30T01:27:51.125Z,405.95
2022-11-30T01:30:18.768Z,387.60
2022-11-30T01:32:45.648Z,396.63
2022-11-30T01:35:13.191Z,515.22
2022-11-30T01:37:39.818Z,379.85
2022-11-30T01:40:07.690Z,360.42
2022-11-30T01:42:34.344Z,390.10
2022-11-30T01:45:02.633Z,429.35
2022-11-30T01:47:34.339Z,421.67
2022-11-30T01:50:08.802Z,517.17
2022-11-30T01:52:45.422Z,449.17
2022-11-30T01:55:31.523Z,472.15
2022-11-30T01:58:00.925Z,395.08
2022-11-30T02:00:28.486Z,412.83
2022-11-30T02:03:23.944Z,369.17
2022-11-30T02:05:51.439Z,502.80
2022-11-30T02:08:19.253Z,359.42
2022-11-30T02:10:52.901Z,318.00
2022-11-30T02:13:28.619Z,388.25
2022-11-30T02:16:08.212Z,333.52
2022-11-30T02:19:02.253Z,390.83
2022-11-30T02:21:45.408Z,331.75
2022-11-30T02:24:30.578Z,382.83
2022-11-30T02:27:00.589Z,474.77
2022-11-30T02:29:34.530Z,337.40
2022-11-30T02:32:03.957Z,317.73
2022-11-30T02:34:35.225Z,301.65
2022-11-30T02:37:02.986Z,289.30
2022-11-30T02:39:29.921Z,243.10
2022-11-30T02:41:57.166Z,233.98
2022-11-30T02:44:24.966Z,187.13
2022-11-30T02:47:11.018Z,171.05
2022-11-30T02:49:46.802Z,150.32
2022-11-30T02:52:15.387Z,137.45
2022-11-30T02:54:43.223Z,136.20
2022-11-30T02:57:09.914Z,129.20
2022-11-30T02:59:37.007Z,123.93
2022-11-30T03:02:03.687Z,123.63
2022-11-30T03:04:30.641Z,115.65
2022-11-30T03:06:57.876Z,113.93
2022-11-30T03:09:24.522Z,110.18
2022-11-30T03:11:51.826Z,107.93
2022-11-30T03:14:18.768Z,116.30
2022-11-30T03:16:46.075Z,106.32
2022-11-30T03:19:14.032Z,115.03
2022-11-30T03:21:41.373Z,111.63
2022-11-30T03:24:08.227Z,112.00
2022-11-30T03:26:35.158Z,111.80
2022-11-30T03:29:01.790Z,109.78
2022-11-30T03:31:29.730Z,113.95
2022-11-30T03:33:56.357Z,96.82
2022-11-30T03:36:23.701Z,100.55
2022-11-30T03:38:50.597Z,102.47
2022-11-30T03:41:18.930Z,103.60
2022-11-30T03:43:47.050Z,106.35
2022-11-30T03:46:15.178Z,104.32
2022-11-30T03:48:44.324Z,102.28
2022-11-30T03:51:12.670Z,98.28
2022-11-30T03:53:39.885Z,103.63
2022-11-30T03:56:09.786Z,99.15
2022-11-30T03:58:36.831Z,98.22
2022-11-30T04:01:23.955Z,109.53
2022-11-30T04:03:52.050Z,106.07
2022-11-30T04:06:20.167Z,101.75
2022-11-30T04:08:47.087Z,105.03
2022-11-30T04:11:14.563Z,102.20
2022-11-30T04:13:42.170Z,94.78
2022-11-30T04:16:09.897Z,93.25
2022-11-30T04:18:38.058Z,100.32
2022-11-30T04:21:06.935Z,93.78
2022-11-30T04:23:36.822Z,91.68
2022-11-30T04:26:11.038Z,97.70
2022-11-30T04:28:37.779Z,98.10
2022-11-30T04:31:05.678Z,101.28
2022-11-30T04:33:32.419Z,96.38
2022-11-30T04:36:02.455Z,97.85
2022-11-30T04:38:29.642Z,96.50
2022-11-30T04:40:57.163Z,93.63
2022-11-30T04:43:24.721Z,91.53
2022-11-30T04:45:52.012Z,96.38
2022-11-30T04:48:19.400Z,93.28
2022-11-30T04:50:46.728Z,88.72
2022-11-30T04:53:13.436Z,96.47
2022-11-30T04:55:40.367Z,94.68
2022-11-30T04:58:08.183Z,93.18
2022-11-30T05:00:35.429Z,94.20
2022-11-30T05:03:03.130Z,96.57
2022-11-30T05:05:29.793Z,104.80
2022-11-30T05:07:59.224Z,111.45
2022-11-30T05:10:27.449Z,104.45
2022-11-30T05:12:55.777Z,103.35
2022-11-30T05:15:22.500Z,103.43
2022-11-30T05:17:49.753Z,100.57
2022-11-30T05:20:16.518Z,106.75
2022-11-30T05:22:44.025Z,106.28
2022-11-30T05:25:10.813Z,107.13
2022-11-30T05:27:38.068Z,108.43
2022-11-30T05:30:05.502Z,100.55
2022-11-30T05:32:32.777Z,105.60
2022-11-30T05:34:59.679Z,109.65
2022-11-30T05:37:26.999Z,108.15
2022-11-30T05:39:53.717Z,108.65
2022-11-30T05:42:21.558Z,104.15
2022-11-30T05:44:48.530Z,105.75
2022-11-30T05:47:16.519Z,109.72
2022-11-30T05:49:43.292Z,105.65
2022-11-30T05:52:10.533Z,97.22
2022-11-30T05:54:37.814Z,102.78
2022-11-30T05:57:05.319Z,107.30
2022-11-30T05:59:32.958Z,98.03
2022-11-30T06:01:59.826Z,93.32
2022-11-30T06:04:27.248Z,88.63
2022-11-30T06:06:55.450Z,91.78
2022-11-30T06:09:23.425Z,93.88
2022-11-30T06:11:50.224Z,89.05
2022-11-30T06:14:17.799Z,85.65
2022-11-30T06:16:44.474Z,82.28
2022-11-30T06:19:11.936Z,84.90
2022-11-30T06:21:38.752Z,86.18
2022-11-30T06:24:06.545Z,84.63
2022-11-30T06:26:33.315Z,85.45
2022-11-30T06:29:00.585Z,93.57
2022-11-30T06:31:27.231Z,87.00
2022-11-30T06:33:58.324Z,96.13
2022-11-30T06:36:25.112Z,94.40
2022-11-30T06:38:52.436Z,99.05
2022-11-30T06:41:19.430Z,97.90
2022-11-30T06:43:46.728Z,94.63
2022-11-30T06:46:13.587Z,108.18
2022-11-30T06:48:40.741Z,101.38
2022-11-30T06:51:10.661Z,96.20
2022-11-30T06:53:37.929Z,94.60
2022-11-30T06:56:10.646Z,103.28
2022-11-30T06:58:39.956Z,101.78
2022-11-30T07:01:08.227Z,97.35
2022-11-30T07:03:36.577Z,102.85
2022-11-30T07:06:08.413Z,111.93
2022-11-30T07:08:35.874Z,114.10
2022-11-30T07:11:02.626Z,106.10
2022-11-30T07:13:30.330Z,96.28
2022-11-30T07:15:56.947Z,106.43
2022-11-30T07:18:30.162Z,96.70
2022-11-30T07:21:02.927Z,104.75
2022-11-30T07:23:55.525Z,100.60
2022-11-30T07:26:23.735Z,109.82
2022-11-30T07:28:55.433Z,101.95
2022-11-30T07:31:36.130Z,112.35
2022-11-30T07:34:09.441Z,109.32
2022-11-30T07:39:04.427Z,102.57
2022-11-30T07:41:31.093Z,117.40
2022-11-30T07:44:01.091Z,113.47
2022-11-30T07:46:27.997Z,121.15
2022-11-30T07:48:54.908Z,127.93
2022-11-30T07:51:22.444Z,135.38
2022-11-30T07:53:49.842Z,136.65
2022-11-30T07:56:19.699Z,136.45
2022-11-30T07:58:47.885Z,139.23
2022-11-30T08:01:21.366Z,148.75
2022-11-30T08:03:52.189Z,143.23
2022-11-30T08:06:24.889Z,138.40
2022-11-30T08:08:53.865Z,138.30
2022-11-30T08:11:23.674Z,141.88
2022-11-30T08:13:51.111Z,136.20
2022-11-30T08:16:20.400Z,148.20
2022-11-30T08:18:48.129Z,153.40
2022-11-30T08:21:18.333Z,138.63
2022-11-30T08:23:48.598Z,133.48
2022-11-30T08:26:21.516Z,125.65
2022-11-30T08:28:50.751Z,141.27
2022-11-30T08:31:42.300Z,127.85
2022-11-30T08:34:14.074Z,124.90
2022-11-30T08:36:41.274Z,124.65
2022-11-30T08:39:09.386Z,122.32
2022-11-30T08:41:36.420Z,127.05
2022-11-30T08:44:03.570Z,122.82
2022-11-30T08:49:22.488Z,119.93
2022-11-30T08:54:43.004Z,116.00
2022-11-30T08:57:09.672Z,119.85
2022-11-30T08:59:37.252Z,115.90
2022-11-30T09:02:03.939Z,112.80
2022-11-30T09:04:31.175Z,110.82
2022-11-30T09:06:59.044Z,101.53
2022-11-30T09:09:26.705Z,112.63
2022-11-30T09:11:53.264Z,107.90
2022-11-30T09:14:20.604Z,101.95
2022-11-30T09:16:47.301Z,104.18
2022-11-30T09:19:14.227Z,109.03
2022-11-30T09:21:44.256Z,104.70
2022-11-30T09:24:14.111Z,109.50
2022-11-30T09:26:40.683Z,105.97
2022-11-30T09:29:07.965Z,106.35
2022-11-30T09:31:34.620Z,106.25
2022-11-30T09:34:01.888Z,98.07
2022-11-30T09:36:29.060Z,103.53
2022-11-30T09:38:57.206Z,97.65
2022-11-30T09:42:04.995Z,107.40
2022-11-30T09:44:40.248Z,108.45
2022-11-30T09:47:16.050Z,104.18
2022-11-30T09:49:48.728Z,97.82
2022-11-30T09:54:47.937Z,107.97
2022-11-30T09:57:41.292Z,98.93
2022-11-30T10:00:17.437Z,105.68
2022-11-30T10:02:45.854Z,99.97
2022-11-30T10:05:22.883Z,99.55
2022-11-30T10:08:17.757Z,91.13
2022-11-30T10:11:13.020Z,102.32
2022-11-30T10:14:01.235Z,98.85
2022-11-30T10:16:40.858Z,101.93
2022-11-30T10:19:17.105Z,100.60
2022-11-30T10:21:52.288Z,96.75
2022-11-30T10:24:53.792Z,95.35
2022-11-30T10:27:37.596Z,94.70
2022-11-30T10:30:13.408Z,100.22
2022-11-30T10:32:43.169Z,89.00
2022-11-30T10:35:38.694Z,87.82
2022-11-30T10:38:22.366Z,85.28
2022-11-30T10:41:13.376Z,89.60
2022-11-30T10:43:57.434Z,96.57
2022-11-30T10:46:30.802Z,92.13
2022-11-30T10:49:05.366Z,85.53
2022-11-30T10:51:36.886Z,87.13
2022-11-30T10:54:22.079Z,84.38
2022-11-30T10:56:49.057Z,84.88
2022-11-30T10:59:40.750Z,90.30
2022-11-30T11:02:45.948Z,91.20
2022-11-30T11:05:23.722Z,87.45
2022-11-30T11:07:50.820Z,88.68
2022-11-30T11:10:21.322Z,84.65
2022-11-30T11:12:55.722Z,87.80
2022-11-30T11:15:25.694Z,85.22
2022-11-30T11:17:53.661Z,84.93
2022-11-30T11:20:36.018Z,84.05
2022-11-30T11:23:04.689Z,82.23
2022-11-30T11:25:36.290Z,80.68
2022-11-30T11:28:14.378Z,77.20
2022-11-30T11:30:41.239Z,87.43
2022-11-30T11:33:14.124Z,76.07
2022-11-30T11:35:52.838Z,77.55
2022-11-30T11:38:47.088Z,74.95
2022-11-30T11:41:25.715Z,78.97
2022-11-30T11:44:23.756Z,81.70
2022-11-30T11:47:00.985Z,74.00
2022-11-30T11:49:32.004Z,79.07
2022-11-30T11:52:15.027Z,72.38
2022-11-30T11:54:56.772Z,76.80
2022-11-30T11:57:36.056Z,80.75
2022-11-30T12:00:16.684Z,71.43
2022-11-30T12:03:13.599Z,71.90
2022-11-30T12:05:46.021Z,64.38
2022-11-30T12:09:07.816Z,70.53
2022-11-30T12:11:46.480Z,67.50
2022-11-30T12:14:17.026Z,64.13
2022-11-30T12:17:31.202Z,67.50
2022-11-30T12:20:14.373Z,65.38
2022-11-30T12:23:06.630Z,65.85
2022-11-30T12:26:02.921Z,46.80
2022-11-30T12:29:00.088Z,70.03
2022-11-30T12:31:47.351Z,65.15
2022-11-30T12:34:39.257Z,62.95
2022-11-30T12:37:25.964Z,60.65
2022-11-30T12:40:26.386Z,64.40
2022-11-30T12:42:59.039Z,61.08
2022-11-30T12:48:28.634Z,59.25
2022-11-30T12:50:55.654Z,60.92
2022-11-30T12:53:41.927Z,62.47
2022-11-30T12:56:26.659Z,57.78
2022-11-30T12:59:11.467Z,75.53
2022-11-30T13:01:47.093Z,75.22
2022-11-30T13:04:32.619Z,80.80
2022-11-30T13:07:11.759Z,67.57
2022-11-30T13:09:47.979Z,67.28
2022-11-30T13:12:23.812Z,60.70
2022-11-30T13:14:58.720Z,59.28
2022-11-30T13:17:26.552Z,75.47
2022-11-30T13:20:31.173Z,74.32
2022-11-30T13:23:19.476Z,68.45
2022-11-30T13:26:17.008Z,60.28
2022-11-30T13:29:08.507Z,59.03
2022-11-30T13:31:47.806Z,56.03
2022-11-30T13:34:29.536Z,62.33
2022-11-30T13:37:11.364Z,56.58
2022-11-30T13:39:45.896Z,60.83
2022-11-30T13:42:21.732Z,56.33
2022-11-30T13:44:49.800Z,66.13
2022-11-30T13:47:29.585Z,62.10
2022-11-30T13:49:59.297Z,61.08
2022-11-30T13:53:06.623Z,51.70
2022-11-30T13:55:46.345Z,56.30
2022-11-30T13:58:15.568Z,55.63
2022-11-30T14:00:44.653Z,54.67
2022-11-30T14:03:26.701Z,48.05
2022-11-30T14:05:54.121Z,52.17
2022-11-30T14:08:21.304Z,49.20
2022-11-30T14:10:49.829Z,50.15
2022-11-30T14:13:25.609Z,45.65
2022-11-30T14:16:00.702Z,43.65
2022-11-30T14:18:39.580Z,44.55
2022-11-30T14:21:28.979Z,44.35
2022-11-30T14:24:19.558Z,43.72
2022-11-30T14:26:49.003Z,43.58
2022-11-30T14:29:23.766Z,43.25
2022-11-30T14:32:12.303Z,39.47
2022-11-30T14:34:44.182Z,42.95
2022-11-30T14:37:24.011Z,41.88
2022-11-30T14:39:56.079Z,43.75
2022-11-30T14:42:33.247Z,39.28
2022-11-30T14:45:00.912Z,40.00
2022-11-30T14:47:33.351Z,39.65
2022-11-30T14:50:02.925Z,43.47
2022-11-30T14:52:38.886Z,36.75
2022-11-30T14:55:20.737Z,39.15
2022-11-30T14:58:09.922Z,39.15
2022-11-30T15:00:39.489Z,40.15
2022-11-30T15:03:38.879Z,40.22
2022-11-30T15:06:07.703Z,39.13
2022-11-30T15:08:42.132Z,43.40
2022-11-30T15:11:14.820Z,40.30
2022-11-30T15:13:44.575Z,43.17
2022-11-30T15:16:29.172Z,36.92
2022-11-30T15:18:58.266Z,38.97
2022-11-30T15:21:32.438Z,35.88
2022-11-30T15:24:02.574Z,37.70
2022-11-30T15:26:34.768Z,40.03
2022-11-30T15:29:09.809Z,37.37
2022-11-30T15:31:39.051Z,42.92
2022-11-30T15:34:07.181Z,37.30
2022-11-30T15:36:39.138Z,37.95
2022-11-30T15:39:07.927Z,39.53
2022-11-30T15:41:35.735Z,40.03
2022-11-30T15:44:02.395Z,38.97
2022-11-30T15:46:34.945Z,39.85
2022-11-30T15:49:22.769Z,37.92
2022-11-30T15:52:10.497Z,36.58
2022-11-30T15:55:03.089Z,35.78
2022-11-30T15:57:59.062Z,41.60
2022-11-30T16:00:26.198Z,42.30
2022-11-30T16:03:13.020Z,39.40
2022-11-30T16:05:40.275Z,45.13
2022-11-30T16:08:16.748Z,39.40
2022-11-30T16:10:43.858Z,38.50
2022-11-30T16:13:15.187Z,40.42
2022-11-30T16:15:48.212Z,40.67
2022-11-30T16:18:21.231Z,43.22
2022-11-30T16:20:50.465Z,39.80
2022-11-30T16:23:19.415Z,46.63
2022-11-30T16:25:47.872Z,40.42
2022-11-30T16:28:16.456Z,45.15
2022-11-30T16:30:44.953Z,43.85
2022-11-30T16:33:23.331Z,39.20
2022-11-30T16:36:07.585Z,43.92
2022-11-30T16:38:34.609Z,45.78
2022-11-30T16:41:18.457Z,45.78
2022-11-30T16:43:47.532Z,44.42
2022-11-30T16:46:17.496Z,48.47
2022-11-30T16:48:44.990Z,47.05
2022-11-30T16:51:19.086Z,49.03
2022-11-30T16:53:46.638Z,52.10
2022-11-30T16:56:14.846Z,51.03
2022-11-30T16:58:42.458Z,48.83
2022-11-30T17:01:36.626Z,52.90
2022-11-30T17:04:25.901Z,50.47
2022-11-30T17:06:58.822Z,52.28
2022-11-30T17:09:30.605Z,55.95
2022-11-30T17:11:57.470Z,46.70
2022-11-30T17:14:24.813Z,55.70
2022-11-30T17:16:51.537Z,51.35
2022-11-30T17:19:18.558Z,57.53
2022-11-30T17:21:45.685Z,62.58
2022-11-30T17:24:13.177Z,52.95
2022-11-30T17:26:40.725Z,52.80
2022-11-30T17:29:07.477Z,55.28
2022-11-30T17:31:34.672Z,70.80
2022-11-30T17:34:01.426Z,69.00
2022-11-30T17:36:29.570Z,65.72
2022-11-30T17:38:56.596Z,67.68
2022-11-30T17:41:23.804Z,80.57
2022-11-30T17:43:52.840Z,74.85
2022-11-30T17:46:20.284Z,74.38
2022-11-30T17:48:46.964Z,74.60
2022-11-30T17:51:13.829Z,75.35
2022-11-30T17:53:42.220Z,74.15
2022-11-30T17:56:11.794Z,69.53
2022-11-30T17:58:43.376Z,65.05
2022-11-30T18:01:22.234Z,75.00
2022-11-30T18:03:49.938Z,66.93
2022-11-30T18:06:17.371Z,78.93
2022-11-30T18:08:44.879Z,78.78
2022-11-30T18:11:17.172Z,75.43
2022-11-30T18:13:44.518Z,65.68
2022-11-30T18:16:14.746Z,72.35
2022-11-30T18:18:47.347Z,75.20
2022-11-30T18:21:20.203Z,74.90
2022-11-30T18:23:48.125Z,73.30
2022-11-30T18:26:17.711Z,77.22
2022-11-30T18:28:45.898Z,74.38
2022-11-30T18:31:13.112Z,83.35
2022-11-30T18:33:39.911Z,97.03
2022-11-30T18:36:07.531Z,81.70
2022-11-30T18:38:37.863Z,69.13
2022-11-30T18:41:05.859Z,71.00
2022-11-30T18:43:33.642Z,71.75
2022-11-30T18:46:09.313Z,75.22
2022-11-30T18:48:37.059Z,70.68
2022-11-30T18:51:15.803Z,83.63
2022-11-30T18:53:43.532Z,76.53
2022-11-30T18:56:20.956Z,72.22
2022-11-30T18:58:48.681Z,100.15
2022-11-30T19:01:18.141Z,67.82
2022-11-30T19:03:58.965Z,66.75
2022-11-30T19:06:29.716Z,76.32
2022-11-30T19:08:57.719Z,75.18
2022-11-30T19:11:24.652Z,69.25
2022-11-30T19:13:56.479Z,66.00
2022-11-30T19:16:24.482Z,68.38
2022-11-30T19:18:53.255Z,70.00
2022-11-30T19:21:21.894Z,68.05
2022-11-30T19:23:49.911Z,73.72
2022-11-30T19:26:16.872Z,74.55
2022-11-30T19:28:44.993Z,64.75
2022-11-30T19:31:17.517Z,78.97
2022-11-30T19:33:47.398Z,84.47
2022-11-30T19:36:18.152Z,79.60
2022-11-30T19:38:45.638Z,75.55
2022-11-30T19:41:14.413Z,107.43
2022-11-30T19:43:41.488Z,71.43
2022-11-30T19:46:11.397Z,75.10
2022-11-30T19:48:39.880Z,98.05
2022-11-30T19:51:16.455Z,80.68
2022-11-30T19:53:45.330Z,62.33
2022-11-30T19:56:17.102Z,69.97
2022-11-30T19:58:46.315Z,54.37
2022-11-30T20:01:24.788Z,53.30
2022-11-30T20:03:53.824Z,56.85
2022-11-30T20:06:23.782Z,59.53
2022-11-30T20:08:53.338Z,54.53
2022-11-30T20:11:19.975Z,60.00
2022-11-30T20:13:47.342Z,53.50
2022-11-30T20:16:16.915Z,76.47
2022-11-30T20:18:46.574Z,54.67
2022-11-30T20:21:19.873Z,47.85
2022-11-30T20:23:48.415Z,50.17
2022-11-30T20:26:23.206Z,53.10
2022-11-30T20:28:52.716Z,53.47
2022-11-30T20:31:21.806Z,51.00
2022-11-30T20:33:49.683Z,53.60
2022-11-30T20:36:17.844Z,53.83
2022-11-30T20:38:45.357Z,59.85
2022-11-30T20:41:15.443Z,61.53
2022-11-30T20:43:44.015Z,55.50
2022-11-30T20:46:27.210Z,70.25
2022-11-30T20:48:55.789Z,60.67
2022-11-30T20:51:32.837Z,83.20
2022-11-30T20:54:02.969Z,52.83
2022-11-30T20:56:29.993Z,54.55
2022-11-30T20:59:01.306Z,50.47
2022-11-30T21:01:27.978Z,51.75
2022-11-30T21:03:55.313Z,55.33
2022-11-30T21:06:21.976Z,57.92
2022-11-30T21:08:49.026Z,84.00
2022-11-30T21:11:19.658Z,55.50
2022-11-30T21:13:49.185Z,62.28
2022-11-30T21:16:22.527Z,74.57
2022-11-30T21:18:53.133Z,54.38
2022-11-30T21:21:23.056Z,69.70
2022-11-30T21:23:50.616Z,51.65
2022-11-30T21:26:23.538Z,81.60
2022-11-30T21:28:53.919Z,74.90
2022-11-30T21:31:22.121Z,53.88
2022-11-30T21:33:53.245Z,104.43
2022-11-30T21:36:21.662Z,59.88
2022-11-30T21:38:53.415Z,72.10
2022-11-30T21:41:20.225Z,88.90
2022-11-30T21:43:47.379Z,59.97
2022-11-30T21:46:17.991Z,54.55
2022-11-30T21:48:48.543Z,46.65
2022-11-30T21:51:21.472Z,62.08
2022-11-30T21:53:51.224Z,53.25
2022-11-30T21:56:23.740Z,46.40
2022-11-30T21:58:51.587Z,60.08
2022-11-30T22:01:41.899Z,37.03
2022-11-30T22:04:10.721Z,77.03
2022-11-30T22:06:39.001Z,45.00
2022-11-30T22:09:11.636Z,42.47
2022-11-30T22:11:40.276Z,39.78
2022-11-30T22:14:12.184Z,37.28
2022-11-30T22:16:38.952Z,44.30
2022-11-30T22:19:07.523Z,36.85
2022-11-30T22:21:34.638Z,36.08
2022-11-30T22:24:08.229Z,35.97
2022-11-30T22:26:40.249Z,37.03
2022-11-30T22:29:12.221Z,51.70
2022-11-30T22:31:42.869Z,50.40
2022-11-30T22:34:10.794Z,44.88
2022-11-30T22:36:39.901Z,76.22
2022-11-30T22:39:15.958Z,38.67
2022-11-30T22:41:45.295Z,45.03
2022-11-30T22:44:17.799Z,38.90
2022-11-30T22:46:44.792Z,46.83
2022-11-30T22:49:19.852Z,44.00
2022-11-30T22:51:47.677Z,43.42
2022-11-30T22:54:15.020Z,40.33
2022-11-30T22:56:41.846Z,47.08
2022-11-30T22:59:12.210Z,45.30
2022-11-30T23:01:42.804Z,52.38
2022-11-30T23:04:13.049Z,44.33
2022-11-30T23:06:41.516Z,44.47
2022-11-30T23:09:13.364Z,52.10
2022-11-30T23:11:40.172Z,47.40
2022-11-30T23:14:08.435Z,48.25
2022-11-30T23:16:38.793Z,50.58
2022-11-30T23:19:09.208Z,52.45
2022-11-30T23:21:41.823Z,55.97
2022-11-30T23:24:14.651Z,65.88
2022-11-30T23:26:42.527Z,60.45
2022-11-30T23:29:11.788Z,61.95
2022-11-30T23:31:40.116Z,61.67
2022-11-30T23:34:10.648Z,67.85
2022-11-30T23:36:37.461Z,76.07
2022-11-30T23:39:12.144Z,75.00
2022-11-30T23:41:39.394Z,71.75
2022-11-30T23:44:07.620Z,77.00
2022-11-30T23:46:34.720Z,85.10
2022-11-30T23:49:02.497Z,86.15
2022-11-30T23:51:29.282Z,87.75
2022-11-30T23:53:56.606Z,83.32
2022-11-30T23:56:24.265Z,81.60
2022-11-30T23:58:52.044Z,82.00
